Terminal Aerodrome Forecast
Issued by NWS Flagstaff, AZ

Home | Current Version | Previous Version | Text Only | Print | Product List | Glossary On
Versions: 1 2 3 4 5 6 7 8 9 10 11 12 13
000
FTUS45 KFGZ 271120
TAFINW
TAF
KINW 271120Z 2712/2812 VRB05KT P6SM BKN250
     FM271800 22020G30KT P6SM BKN070 BKN250
     FM280300 24010G15KT P6SM VCSH BKN050 OVC070
     FM280900 28008KT P6SM BKN050 OVC070=

USA.gov is the U.S. government's official web portal to all federal, state and local government web resources and services.